LIRZ/PEG METAR and TAF weather

Enter ICAO airport designator
Station Type Date Time Source
LIRZ METAR 2022/12/05 14:20 UTC NOAA

LIRZ 051420Z AUTO 19007KT 9999 FEW037/// BKN053/// 15/10 Q1018


Station Type Date Time Source
LIRZ Decoded METAR 2022/12/05 14:20 UTC NOAA

Perugia, Italy (LIRZ) 43-05N 012-30E 205M
Dec 05, 2022 - 09:20 AM EST / 2022.12.05 1420 UTC
Wind: from the S (190 degrees) at 8 MPH (7 KT):0
Visibility: greater than 7 mile(s):0
Sky conditions: mostly cloudy
Temperature: 59 F (15 C)
Dew Point: 50 F (10 C)
Relative Humidity: 72%
Pressure (altimeter): 30.06 in. Hg (1018 hPa)
ob: LIRZ 051420Z AUTO 19007KT 9999 FEW037/// BKN053/// 15/10 Q1018
cycle: 14

Station Type Date Time Source
LIRZ TAF 2022/12/05 12:21 UTC NOAA

TAF LIRZ 051100Z 0512/0612 20012KT 7000 BKN040
TEMPO 0512/0516 RA
BECMG 0517/0519 VRB05KT
TEMPO 0600/0612 RA

Example: see airport list